Holly Pond, Alabama
Current Conditions -  °F | °C
As of 5:15 PM on Friday 31 Oct 2014 (Local Time) from KCMD Reporting Station
Broken Clouds Broken Clouds  
Wind Chill:   Ceiling: 2000
Heat Index:   Visibility: 10mi
Dew Point:   Wind: 7mph
Humidity: 91%   Direction: 340°NNW
Pressure: 30.05"   Gusts: NA
Location:  34.17°N, 86.62°W
Report Text: KCMD 312215Z AUTO 34006KT 10SM SCT011 BKN020 BKN026 09/07 A3005 RMK AO2 T00880074
Loading
Personal Weather Stations






























Interactive Weather Map
Tropical Storm Tracking
New forecast layout! Learn more

10-Day Weather Forecast

Advertisements
Track Severe Weather on mobile